Time;durP1;ratioP1;P1;durP2;ratioP2;P2;SDS_P1;SDS_P2;PMS_P1;PMS_P2;Temp;Humidity;BMP_temperature;BMP_pressure;BME280_temperature;BME280_humidity;BME280_pressure;Samples;Min_cycle;Max_cycle;Signal;HPM_P1;HPM_P2
2023/08/23 00:01:45;;;;;;;11.57;10.52;;;;;;;22.90;67.85;95171.81;5059334;28;20184;-65
2023/08/23 00:04:19;;;;;;;11.80;10.80;;;;;;;22.91;68.00;95168.56;5059694;28;20200;-66
2023/08/23 00:06:47;;;;;;;11.75;10.65;;;;;;;22.90;67.67;95166.19;5075735;28;20255;-65
2023/08/23 00:09:17;;;;;;;11.85;10.85;;;;;;;22.87;68.19;95159.41;5076270;28;20231;-65
2023/08/23 00:11:45;;;;;;;11.07;10.07;;;;;;;22.82;67.81;95163.50;5059081;28;20205;-66
2023/08/23 00:14:14;;;;;;;12.10;11.10;;;;;;;22.80;68.24;95167.97;5076580;28;20212;-66
2023/08/23 00:16:42;;;;;;;11.27;10.27;;;;;;;22.79;68.41;95166.41;5058662;28;20208;-66
2023/08/23 00:19:10;;;;;;;12.30;11.10;;;;;;;22.75;68.08;95163.66;5076145;28;20193;-66
2023/08/23 00:21:39;;;;;;;12.15;10.95;;;;;;;22.73;68.08;95154.03;5058678;28;20197;-66
2023/08/23 00:24:08;;;;;;;12.13;11.02;;;;;;;22.66;68.33;95165.41;5076107;28;20212;-66
2023/08/23 00:26:35;;;;;;;11.95;10.80;;;;;;;22.62;68.49;95164.69;5058577;28;20277;-66
2023/08/23 00:29:04;;;;;;;11.93;10.93;;;;;;;22.58;68.54;95159.94;5075861;28;20189;-68
2023/08/23 00:31:31;;;;;;;11.52;10.50;;;;;;;22.56;68.94;95164.41;5075729;28;20648;-66
2023/08/23 00:33:59;;;;;;;11.75;10.65;;;;;;;22.53;68.96;95165.25;5076082;28;20196;-67
2023/08/23 00:36:27;;;;;;;11.98;10.98;;;;;;;22.52;68.81;95163.69;5075369;28;20190;-67
2023/08/23 00:38:59;;;;;;;11.57;10.57;;;;;;;22.52;69.60;95158.06;5075927;28;20196;-67
2023/08/23 00:41:27;;;;;;;11.93;10.93;;;;;;;22.51;69.65;95162.91;5075642;28;20236;-67
2023/08/23 00:43:54;;;;;;;12.15;11.15;;;;;;;22.55;69.21;95160.03;5058513;28;20208;-66
2023/08/23 00:46:22;;;;;;;11.73;10.73;;;;;;;22.57;69.32;95157.56;5075404;28;20579;-66
2023/08/23 00:48:51;;;;;;;12.20;11.25;;;;;;;22.57;68.92;95154.75;5057957;28;20250;-66
2023/08/23 00:51:19;;;;;;;12.38;11.27;;;;;;;22.55;68.96;95160.81;5058248;28;20274;-66
2023/08/23 00:53:48;;;;;;;13.00;11.90;;;;;;;22.52;68.74;95158.06;5057495;28;20254;-66
2023/08/23 00:56:21;;;;;;;11.77;10.68;;;;;;;22.45;68.94;95158.97;5075613;28;20512;-66
2023/08/23 00:58:49;;;;;;;11.02;10.13;;;;;;;22.42;69.33;95156.22;5075719;28;20211;-66
2023/08/23 01:01:17;;;;;;;11.13;10.23;;;;;;;22.41;69.35;95154.66;5075686;28;20262;-66
2023/08/23 01:03:44;;;;;;;12.32;11.32;;;;;;;22.40;69.80;95153.03;5075520;28;20196;-66
2023/08/23 01:06:24;;;;;;;12.23;11.15;;;;;;;22.38;69.59;95149.88;5075863;28;20205;-66
2023/08/23 01:08:59;;;;;;;11.93;10.82;;;;;;;22.35;69.72;95160.75;5075499;28;20196;-66
2023/08/23 01:11:32;;;;;;;12.43;11.23;;;;;;;22.35;69.56;95162.75;5057747;28;20535;-66
2023/08/23 01:14:06;;;;;;;12.15;11.15;;;;;;;22.29;69.42;95164.44;5075419;28;20596;-66
2023/08/23 01:16:35;;;;;;;12.30;11.18;;;;;;;22.25;70.06;95169.34;5057928;28;20197;-66
2023/08/23 01:19:13;;;;;;;11.63;10.63;;;;;;;22.23;70.11;95174.59;5057933;28;20242;-66
2023/08/23 01:21:42;;;;;;;12.15;10.93;;;;;;;22.22;70.64;95168.19;5057710;28;20185;-66
2023/08/23 01:24:11;;;;;;;12.50;11.00;;;;;;;22.22;70.54;95170.19;5075065;28;20184;-66
2023/08/23 01:26:41;;;;;;;12.63;11.45;;;;;;;22.22;70.06;95168.19;5074586;28;20216;-67
2023/08/23 01:29:09;;;;;;;12.00;11.00;;;;;;;22.19;70.14;95169.06;5074961;28;20197;-67
2023/08/23 01:31:39;;;;;;;12.77;11.50;;;;;;;22.19;70.19;95165.44;5075053;28;20181;-67
2023/08/23 01:34:11;;;;;;;12.70;11.48;;;;;;;22.19;70.25;95163.44;5057514;28;20219;-67
2023/08/23 01:36:42;;;;;;;12.20;11.07;;;;;;;22.18;70.29;95159.00;5057569;28;20193;-67
2023/08/23 01:39:12;;;;;;;11.68;10.68;;;;;;;22.16;70.43;95157.88;5057239;28;20193;-67
2023/08/23 01:41:39;;;;;;;12.18;11.05;;;;;;;22.16;70.45;95160.69;5053514;28;20234;-67
2023/08/23 01:44:06;;;;;;;12.60;11.57;;;;;;;22.16;70.12;95161.47;5054939;28;20239;-67
2023/08/23 01:46:35;;;;;;;12.10;11.00;;;;;;;22.11;70.08;95154.28;5054528;28;20267;-67
2023/08/23 01:49:04;;;;;;;12.18;11.18;;;;;;;22.02;70.26;95156.84;5054349;28;20335;-67
2023/08/23 01:51:33;;;;;;;12.88;11.68;;;;;;;21.98;70.59;95149.69;5054693;28;20249;-67
2023/08/23 01:54:01;;;;;;;12.82;11.77;;;;;;;21.95;70.38;95156.94;5053992;28;20202;-67
2023/08/23 01:56:33;;;;;;;12.82;11.63;;;;;;;21.94;70.61;95155.38;5054694;28;20224;-67
2023/08/23 01:59:01;;;;;;;12.10;11.00;;;;;;;21.91;71.17;95155.41;5053999;28;20529;-67
2023/08/23 02:01:28;;;;;;;11.00;10.07;;;;;;;21.94;71.58;95163.00;5054516;28;20222;-67
2023/08/23 02:03:56;;;;;;;12.27;11.20;;;;;;;21.94;70.95;95160.97;5055136;28;20266;-67
2023/08/23 02:06:24;;;;;;;12.63;11.32;;;;;;;21.96;71.22;95172.56;5057747;28;20197;-67
2023/08/23 02:08:51;;;;;;;12.90;11.80;;;;;;;21.94;71.03;95163.78;5058192;28;20194;-67
2023/08/23 02:11:19;;;;;;;13.05;11.85;;;;;;;21.91;71.37;95167.44;5058797;28;20211;-68
2023/08/23 02:13:54;;;;;;;12.70;11.40;;;;;;;21.91;71.47;95172.28;5058321;28;20562;-69
2023/08/23 02:16:22;;;;;;;13.25;12.15;;;;;;;21.90;70.94;95162.25;5058855;28;20197;-69
2023/08/23 02:18:50;;;;;;;11.73;10.82;;;;;;;21.88;71.25;95163.47;5058397;28;20186;-69
2023/08/23 02:21:18;;;;;;;12.75;11.57;;;;;;;21.85;71.43;95167.09;5058331;28;20194;-69
2023/08/23 02:23:46;;;;;;;12.45;11.43;;;;;;;21.82;71.41;95167.16;5058536;28;20194;-69
2023/08/23 02:26:16;;;;;;;12.77;11.68;;;;;;;21.78;71.37;95163.63;5058576;28;20182;-67
2023/08/23 02:28:44;;;;;;;12.93;11.77;;;;;;;21.76;71.59;95163.25;5058516;28;20186;-67
2023/08/23 02:31:14;;;;;;;13.40;12.13;;;;;;;21.75;71.86;95161.66;5057575;28;20202;-67
2023/08/23 02:33:41;;;;;;;12.88;11.73;;;;;;;21.76;71.47;95157.66;5058329;28;20197;-67
2023/08/23 02:36:09;;;;;;;13.32;12.00;;;;;;;21.77;71.36;95162.81;5057283;28;20227;-67
2023/08/23 02:38:37;;;;;;;12.52;11.43;;;;;;;21.82;71.22;95169.97;5057862;28;20555;-67
2023/08/23 02:41:05;;;;;;;11.85;10.75;;;;;;;21.84;71.75;95165.53;5066217;28;20255;-67
2023/08/23 02:43:31;;;;;;;14.00;11.55;;;;;;;21.83;71.40;95158.34;5060606;28;20200;-67
2023/08/23 02:46:01;;;;;;;12.65;11.45;;;;;;;21.81;71.19;95157.94;5078700;28;20213;-67
2023/08/23 02:48:31;;;;;;;12.38;11.32;;;;;;;21.77;70.70;95160.03;5078039;28;20209;-67
2023/08/23 02:50:59;;;;;;;13.13;11.88;;;;;;;21.72;70.61;95162.53;5077971;28;20174;-67
2023/08/23 02:53:26;;;;;;;12.27;11.25;;;;;;;21.72;70.43;95162.53;5060494;28;20208;-67
2023/08/23 02:55:54;;;;;;;12.50;11.25;;;;;;;21.70;70.86;95153.72;5078108;28;20196;-67
2023/08/23 02:58:24;;;;;;;11.43;10.43;;;;;;;21.64;70.58;95164.63;5077637;28;20204;-67
2023/08/23 03:00:52;;;;;;;11.88;10.88;;;;;;;21.58;70.51;95155.09;5077623;28;20204;-67
2023/08/23 03:03:21;;;;;;;12.40;11.23;;;;;;;21.54;70.91;95148.75;5060311;28;20201;-67
2023/08/23 03:05:55;;;;;;;13.00;11.80;;;;;;;21.53;70.79;95152.75;5060207;28;20283;-67
2023/08/23 03:08:23;;;;;;;12.25;11.05;;;;;;;21.51;70.42;95150.38;5077726;28;20248;-67
2023/08/23 03:10:51;;;;;;;12.02;11.02;;;;;;;21.51;70.95;95153.19;5077750;28;20173;-67
2023/08/23 03:13:20;;;;;;;12.80;11.60;;;;;;;21.46;70.82;95155.66;5059810;28;20204;-67
2023/08/23 03:15:54;;;;;;;12.57;11.45;;;;;;;21.42;70.97;95158.50;5077609;28;20186;-67
2023/08/23 03:18:22;;;;;;;13.00;11.65;;;;;;;21.42;71.02;95163.31;5059702;28;20189;-66
2023/08/23 03:20:50;;;;;;;12.65;11.38;;;;;;;21.41;70.85;95161.75;5077528;28;20208;-67
2023/08/23 03:23:20;;;;;;;12.05;10.95;;;;;;;21.39;71.24;95153.75;5077191;28;20209;-67
2023/08/23 03:25:53;;;;;;;12.70;11.60;;;;;;;21.38;70.65;95157.75;5077391;28;20189;-67
2023/08/23 03:28:21;;;;;;;12.32;11.30;;;;;;;21.38;70.71;95160.56;5059793;28;20224;-67
2023/08/23 03:30:52;;;;;;;12.40;11.30;;;;;;;21.34;70.38;95157.00;5076928;28;20217;-67
2023/08/23 03:33:19;;;;;;;12.00;10.82;;;;;;;21.31;70.68;95157.81;5077435;28;20181;-67
2023/08/23 03:35:56;;;;;;;12.38;11.27;;;;;;;21.26;70.71;95155.50;5076874;28;20529;-67
2023/08/23 03:38:28;;;;;;;13.00;11.73;;;;;;;21.23;71.21;95156.31;5077175;28;20207;-67
2023/08/23 03:41:00;;;;;;;12.38;11.30;;;;;;;21.23;70.87;95159.13;5076883;28;20233;-67
2023/08/23 03:43:28;;;;;;;12.43;11.15;;;;;;;21.23;70.96;95164.75;5077140;28;20609;-67
2023/08/23 03:45:58;;;;;;;12.07;10.93;;;;;;;21.22;71.20;95161.16;5059488;28;20527;-67
2023/08/23 03:48:26;;;;;;;12.57;11.40;;;;;;;21.22;71.00;95163.16;5076606;28;20205;-67
2023/08/23 03:50:56;;;;;;;13.00;11.50;;;;;;;21.21;70.86;95155.97;5076938;28;20200;-67
2023/08/23 03:53:22;;;;;;;13.45;11.27;;;;;;;21.21;70.74;95167.19;5059327;28;20212;-67
2023/08/23 03:55:53;;;;;;;13.52;11.82;;;;;;;21.20;70.71;95159.97;5059285;28;20529;-70
2023/08/23 03:58:24;;;;;;;12.73;11.60;;;;;;;21.18;70.93;95159.59;5076773;28;20189;-66
2023/08/23 04:00:55;;;;;;;11.80;10.80;;;;;;;21.15;70.87;95161.22;5076598;28;20197;-69
2023/08/23 04:03:22;;;;;;;13.43;11.75;;;;;;;21.12;70.10;95168.47;5059051;28;20197;-69
2023/08/23 04:05:50;;;;;;;12.68;11.38;;;;;;;21.11;70.63;95161.28;5076371;28;20275;-66
2023/08/23 04:08:18;;;;;;;12.57;11.38;;;;;;;21.07;70.34;95170.94;5059585;28;20221;-66
2023/08/23 04:10:49;;;;;;;14.70;11.77;;;;;;;21.06;70.67;95164.56;5076602;28;20190;-66
2023/08/23 04:13:18;;;;;;;13.05;11.80;;;;;;;21.05;70.67;95162.16;5058796;28;20215;-65
2023/08/23 04:15:47;;;;;;;12.93;11.82;;;;;;;21.02;70.61;95160.97;5058832;28;20208;-65
2023/08/23 04:18:18;;;;;;;12.98;11.88;;;;;;;21.06;70.72;95164.56;5076512;28;20169;-65
2023/08/23 04:20:45;;;;;;;13.63;12.13;;;;;;;21.09;70.70;95160.88;5076420;28;20181;-65
2023/08/23 04:23:13;;;;;;;13.30;12.00;;;;;;;21.12;70.63;95160.06;5076357;28;20181;-65
2023/08/23 04:25:40;;;;;;;13.95;12.63;;;;;;;21.14;70.61;95157.63;5075953;28;20235;-65
2023/08/23 04:28:08;;;;;;;13.13;11.73;;;;;;;21.18;70.42;95154.00;5074683;28;20216;-65
2023/08/23 04:30:38;;;;;;;13.82;12.50;;;;;;;21.21;70.69;95158.78;5074813;28;20201;-65
2023/08/23 04:33:06;;;;;;;13.88;12.55;;;;;;;21.26;71.04;95159.09;5075982;28;20178;-65
2023/08/23 04:35:34;;;;;;;14.38;13.00;;;;;;;21.24;70.85;95160.72;5076015;28;20251;-65
2023/08/23 04:38:01;;;;;;;14.63;12.65;;;;;;;21.20;71.03;95160.75;5058343;28;20209;-66
2023/08/23 04:40:35;;;;;;;14.10;12.70;;;;;;;21.23;70.94;95165.53;5075983;28;20248;-65
2023/08/23 04:43:02;;;;;;;14.70;13.13;;;;;;;21.27;70.58;95163.47;5075942;28;20224;-65
2023/08/23 04:45:30;;;;;;;14.18;12.68;;;;;;;21.30;70.99;95162.63;5058188;28;20266;-65
2023/08/23 04:47:59;;;;;;;14.10;12.50;;;;;;;21.34;70.62;95165.44;5075451;28;20205;-65
2023/08/23 04:50:29;;;;;;;14.63;13.10;;;;;;;21.39;70.85;95168.56;5057711;28;20258;-65
2023/08/23 04:53:00;;;;;;;14.23;12.68;;;;;;;21.44;70.46;95169.31;5075010;28;20200;-65
2023/08/23 04:55:27;;;;;;;15.70;12.23;;;;;;;21.47;70.71;95171.28;5075690;28;20185;-65
2023/08/23 04:57:54;;;;;;;14.75;13.20;;;;;;;21.51;70.59;95167.22;5075350;28;20185;-65
2023/08/23 05:00:23;;;;;;;14.27;12.77;;;;;;;21.55;69.88;95167.16;5075655;28;20250;-66
2023/08/23 05:02:51;;;;;;;14.15;12.50;;;;;;;21.60;69.49;95169.47;5057715;28;20197;-65
2023/08/23 05:05:21;;;;;;;14.88;13.27;;;;;;;21.62;70.12;95179.09;5057943;28;20197;-66
2023/08/23 05:07:49;;;;;;;13.98;12.68;;;;;;;21.63;69.59;95177.06;5074575;28;20213;-66
2023/08/23 05:10:20;;;;;;;14.70;13.40;;;;;;;21.64;69.97;95178.66;5058481;28;20667;-66
2023/08/23 05:12:51;;;;;;;13.90;12.57;;;;;;;21.66;69.70;95178.25;5058399;28;20177;-65
2023/08/23 05:15:22;;;;;;;13.75;12.55;;;;;;;21.67;69.35;95174.22;5075267;28;20262;-65
2023/08/23 05:17:52;;;;;;;13.90;12.70;;;;;;;21.71;68.62;95172.13;5058276;28;20637;-65
2023/08/23 05:20:27;;;;;;;14.73;13.38;;;;;;;21.75;68.83;95176.50;5058131;28;20200;-66
2023/08/23 05:22:57;;;;;;;13.73;12.52;;;;;;;21.77;68.52;95168.44;5057842;28;20296;-65
2023/08/23 05:25:26;;;;;;;14.23;12.82;;;;;;;21.78;68.54;95172.84;5074957;28;20193;-65
2023/08/23 05:27:57;;;;;;;14.50;13.20;;;;;;;21.79;67.82;95180.06;5075206;28;20232;-66
2023/08/23 05:30:25;;;;;;;14.45;12.77;;;;;;;21.83;67.91;95175.19;5075524;28;20193;-65
2023/08/23 05:32:53;;;;;;;13.13;12.05;;;;;;;21.89;68.20;95169.88;5075230;28;20196;-65
2023/08/23 05:35:27;;;;;;;14.57;13.18;;;;;;;21.93;68.50;95172.63;5075143;28;20185;-65
2023/08/23 05:37:55;;;;;;;14.02;12.73;;;;;;;21.95;67.49;95176.59;5057642;28;20211;-65
2023/08/23 05:40:26;;;;;;;15.15;13.65;;;;;;;21.96;67.65;95180.19;5057481;28;20204;-66
2023/08/23 05:42:57;;;;;;;13.95;12.55;;;;;;;21.95;67.52;95176.59;5057489;28;20581;-66
2023/08/23 05:45:26;;;;;;;14.48;13.18;;;;;;;21.95;67.40;95176.59;5075010;28;20201;-66
2023/08/23 05:47:55;;;;;;;15.13;13.82;;;;;;;21.99;66.69;95174.53;5057994;28;20248;-65
2023/08/23 05:50:27;;;;;;;16.48;14.88;;;;;;;22.03;67.11;95166.06;5057820;28;20193;-65
2023/08/23 05:52:54;;;;;;;16.83;15.43;;;;;;;22.07;66.58;95169.59;5075070;28;20210;-65
2023/08/23 05:55:24;;;;;;;16.98;15.48;;;;;;;22.12;67.06;95163.50;5074728;28;20188;-65
2023/08/23 05:57:53;;;;;;;17.77;16.25;;;;;;;22.16;66.93;95169.91;5074953;28;20196;-66
2023/08/23 06:00:23;;;;;;;18.20;16.50;;;;;;;22.20;67.31;95170.63;5057341;28;20209;-66
2023/08/23 06:02:51;;;;;;;19.08;17.27;;;;;;;22.26;67.11;95168.13;5075171;28;20201;-66
2023/08/23 06:05:22;;;;;;;17.92;16.23;;;;;;;22.30;67.49;95166.84;5074889;28;20190;-66
2023/08/23 06:07:55;;;;;;;14.13;12.82;;;;;;;22.35;67.42;95165.56;5074800;28;20219;-65
2023/08/23 06:10:23;;;;;;;16.48;14.88;;;;;;;22.43;67.12;95177.47;5074876;28;20177;-65
2023/08/23 06:12:51;;;;;;;15.82;14.38;;;;;;;22.48;67.13;95172.19;5057271;28;20205;-65
2023/08/23 06:15:19;;;;;;;14.20;12.73;;;;;;;22.52;66.89;95172.91;5057289;28;20227;-65
2023/08/23 06:17:49;;;;;;;16.40;14.80;;;;;;;22.59;66.97;95172.78;5057010;28;20193;-65
2023/08/23 06:20:20;;;;;;;14.23;13.02;;;;;;;22.65;67.01;95163.84;5057182;28;20239;-65
2023/08/23 06:22:54;;;;;;;14.68;13.35;;;;;;;22.72;66.49;95163.72;5074782;28;20193;-65
2023/08/23 06:25:22;;;;;;;13.85;12.45;;;;;;;22.76;66.89;95167.25;5074364;28;20178;-66
2023/08/23 06:27:52;;;;;;;15.45;14.07;;;;;;;22.80;66.64;95167.97;5056729;28;20200;-65
2023/08/23 06:30:26;;;;;;;15.18;13.68;;;;;;;22.81;65.76;95155.53;5057181;28;20762;-65
2023/08/23 06:32:55;;;;;;;15.20;13.90;;;;;;;22.82;65.85;95159.91;5057406;28;20205;-65
2023/08/23 06:35:24;;;;;;;15.25;13.90;;;;;;;22.78;65.62;95159.97;5057132;28;20211;-65
2023/08/23 06:37:53;;;;;;;14.27;12.88;;;;;;;22.80;65.27;95153.91;5074519;28;20248;-65
2023/08/23 06:40:21;;;;;;;13.27;12.00;;;;;;;22.86;64.75;95157.03;5074398;28;20193;-65
2023/08/23 06:42:50;;;;;;;14.60;13.25;;;;;;;22.92;64.72;95156.13;5057090;28;20204;-65
2023/08/23 06:45:18;;;;;;;15.18;13.85;;;;;;;22.98;64.44;95153.59;5074175;28;20216;-66
2023/08/23 06:47:47;;;;;;;13.43;12.20;;;;;;;23.04;64.48;95157.50;5074175;28;20209;-65
2023/08/23 06:50:17;;;;;;;13.18;11.98;;;;;;;23.11;64.28;95156.59;5074524;28;20197;-66
2023/08/23 06:52:44;;;;;;;14.48;13.18;;;;;;;23.18;64.22;95153.63;5058999;28;20250;-66
2023/08/23 06:55:19;;;;;;;14.77;13.45;;;;;;;23.20;63.95;95157.59;5077920;28;20225;-66
2023/08/23 06:57:46;;;;;;;14.43;13.13;;;;;;;23.25;63.52;95159.91;5060084;28;20207;-66
2023/08/23 07:00:14;;;;;;;12.80;11.65;;;;;;;23.33;62.92;95166.16;5060854;28;20540;-65
2023/08/23 07:02:42;;;;;;;12.32;11.20;;;;;;;23.45;62.77;95161.91;5077930;28;20244;-65
2023/08/23 07:05:10;;;;;;;13.00;11.80;;;;;;;23.58;62.01;95162.81;5059993;28;20201;-65
2023/08/23 07:07:40;;;;;;;13.65;12.40;;;;;;;23.64;62.03;95163.91;5060161;28;20200;-65
2023/08/23 07:10:08;;;;;;;14.88;13.57;;;;;;;23.68;61.69;95163.88;5077811;28;20225;-65
2023/08/23 07:12:37;;;;;;;16.23;14.73;;;;;;;23.73;60.65;95154.88;5077677;28;20197;-65
2023/08/23 07:15:10;;;;;;;13.00;11.80;;;;;;;23.75;61.08;95167.31;5076838;28;20205;-66
2023/08/23 07:17:37;;;;;;;12.98;11.70;;;;;;;23.90;60.64;95162.16;5059856;28;20224;-65
2023/08/23 07:20:06;;;;;;;13.00;11.80;;;;;;;24.02;60.22;95169.09;5060152;28;20201;-65
2023/08/23 07:22:36;;;;;;;14.20;12.80;;;;;;;24.09;59.67;95163.31;5077532;28;20197;-66
2023/08/23 07:25:05;;;;;;;14.63;13.05;;;;;;;24.16;59.67;95165.16;5077613;28;20178;-65
2023/08/23 07:27:36;;;;;;;15.35;14.02;;;;;;;24.31;58.72;95155.13;5059468;28;20197;-66
2023/08/23 07:30:14;;;;;;;15.43;14.07;;;;;;;24.42;58.51;95152.06;5077365;28;20220;-65
2023/08/23 07:32:42;;;;;;;14.73;13.45;;;;;;;24.47;58.09;95154.34;5059783;28;20205;-65
2023/08/23 07:35:11;;;;;;;14.20;12.90;;;;;;;24.48;58.19;95142.66;5077348;28;20207;-65
2023/08/23 07:37:39;;;;;;;17.25;15.75;;;;;;;24.49;57.42;95143.44;5077304;28;20189;-66
2023/08/23 07:40:09;;;;;;;14.85;13.50;;;;;;;24.42;57.96;95147.22;5060137;28;20189;-65
2023/08/23 07:42:37;;;;;;;16.38;14.98;;;;;;;24.41;58.80;95148.47;5056529;28;20229;-66
2023/08/23 07:45:08;;;;;;;17.50;15.90;;;;;;;24.49;58.64;95137.78;5057282;28;20193;-65
2023/08/23 07:47:37;;;;;;;17.15;15.65;;;;;;;24.48;58.83;95136.22;5056962;28;20201;-65
2023/08/23 07:50:08;;;;;;;14.13;12.90;;;;;;;24.49;58.38;95141.41;5056470;28;20210;-65
2023/08/23 07:52:36;;;;;;;14.95;13.50;;;;;;;24.54;58.42;95144.91;5056333;28;20300;-66
2023/08/23 07:55:05;;;;;;;14.32;13.23;;;;;;;24.60;58.06;95140.34;5056320;28;20209;-65
2023/08/23 07:57:33;;;;;;;14.13;12.70;;;;;;;24.72;58.17;95140.38;5056566;28;20182;-65
2023/08/23 08:00:01;;;;;;;16.52;13.98;;;;;;;24.83;58.05;95140.09;5056927;28;20214;-65
2023/08/23 08:02:34;;;;;;;17.23;15.52;;;;;;;24.97;58.60;95136.91;5056803;28;20186;-65
2023/08/23 08:05:01;;;;;;;14.55;13.25;;;;;;;25.04;57.27;95137.94;5072683;28;20197;-65
2023/08/23 08:07:30;;;;;;;14.80;13.43;;;;;;;25.09;57.17;95132.56;5055383;28;20193;-65
2023/08/23 08:09:58;;;;;;;14.88;13.48;;;;;;;25.21;57.33;95136.69;5056297;28;20245;-65
2023/08/23 08:12:26;;;;;;;17.15;15.55;;;;;;;25.27;56.95;95134.09;5056572;28;20578;-65
2023/08/23 08:14:54;;;;;;;14.85;13.65;;;;;;;25.34;56.90;95133.88;5056649;28;20197;-65
2023/08/23 08:17:22;;;;;;;15.63;14.23;;;;;;;25.49;56.82;95137.06;5056290;28;20319;-65
2023/08/23 08:19:52;;;;;;;16.35;14.77;;;;;;;25.70;55.41;95128.75;5055675;28;20546;-65
2023/08/23 08:22:20;;;;;;;15.13;13.82;;;;;;;25.82;55.58;95123.63;5056509;28;20186;-65
2023/08/23 08:24:48;;;;;;;16.00;14.60;;;;;;;25.83;55.27;95125.97;5072104;28;20606;-66
2023/08/23 08:27:16;;;;;;;16.85;15.25;;;;;;;26.03;54.23;95124.94;5055503;28;20194;-66
2023/08/23 08:29:44;;;;;;;16.70;15.20;;;;;;;26.10;54.19;95130.38;5055287;28;20213;-66
2023/08/23 08:32:12;;;;;;;16.25;14.85;;;;;;;26.16;54.19;95125.75;5056157;28;20284;-65
2023/08/23 08:34:40;;;;;;;16.75;15.27;;;;;;;26.20;54.78;95132.06;5056173;28;20190;-65
2023/08/23 08:37:09;;;;;;;17.15;15.40;;;;;;;26.24;55.26;95124.25;5056165;28;20197;-65
2023/08/23 08:39:36;;;;;;;14.93;13.40;;;;;;;26.40;53.36;95123.34;5056001;28;20198;-66
2023/08/23 08:42:04;;;;;;;14.60;12.85;;;;;;;26.52;52.95;95116.09;5070833;28;20240;-66
2023/08/23 08:44:35;;;;;;;14.20;13.07;;;;;;;26.64;52.36;95118.09;5076012;28;20185;-65
2023/08/23 08:47:06;;;;;;;13.15;11.98;;;;;;;26.82;52.31;95117.47;5058358;28;20200;-66
2023/08/23 08:49:37;;;;;;;14.85;13.32;;;;;;;27.09;49.95;95119.75;5058732;28;20205;-65
2023/08/23 08:52:06;;;;;;;14.02;12.75;;;;;;;27.16;51.30;95116.69;5075469;28;20205;-65
2023/08/23 08:54:38;;;;;;;13.60;12.30;;;;;;;27.18;50.13;95111.34;5075599;28;20186;-66
2023/08/23 08:57:09;;;;;;;14.30;13.00;;;;;;;27.28;49.03;95113.00;5058254;28;20204;-66
2023/08/23 08:59:39;;;;;;;13.52;12.27;;;;;;;27.43;49.02;95112.47;5058015;28;20204;-65
2023/08/23 09:02:10;;;;;;;12.80;11.73;;;;;;;27.63;47.68;95103.59;5058446;28;20200;-65
2023/08/23 09:04:39;;;;;;;13.70;12.45;;;;;;;27.62;48.36;95102.81;5058135;28;20205;-65
2023/08/23 09:07:10;;;;;;;11.80;10.70;;;;;;;27.72;47.21;95098.00;5058201;28;20214;-65
2023/08/23 09:09:41;;;;;;;11.93;10.98;;;;;;;27.73;46.59;95091.06;5057820;28;20217;-66
2023/08/23 09:12:11;;;;;;;10.93;9.93;;;;;;;27.72;45.37;95095.16;5057852;28;20201;-65
2023/08/23 09:14:40;;;;;;;11.10;10.00;;;;;;;27.97;45.24;95082.88;5057266;28;20223;-65
2023/08/23 09:17:09;;;;;;;11.68;10.75;;;;;;;28.18;45.34;95076.34;5057900;28;20203;-65
2023/08/23 09:19:41;;;;;;;11.25;10.18;;;;;;;28.28;45.25;95079.97;5074995;28;20232;-66
2023/08/23 09:22:12;;;;;;;11.00;10.10;;;;;;;28.14;44.76;95078.50;5075405;28;20181;-66
2023/08/23 09:24:45;;;;;;;11.23;10.32;;;;;;;28.07;43.87;95070.31;5074971;28;20320;-66
2023/08/23 09:27:13;;;;;;;10.82;9.90;;;;;;;28.21;43.29;95061.19;5057772;28;20205;-66
2023/08/23 09:29:42;;;;;;;10.40;9.48;;;;;;;28.36;42.94;95061.41;5057516;28;20217;-65
2023/08/23 09:32:10;;;;;;;9.95;9.05;;;;;;;28.43;41.88;95060.31;5057850;28;20204;-65
2023/08/23 09:34:39;;;;;;;10.20;9.20;;;;;;;28.44;40.96;95053.41;5057551;28;20224;-66
2023/08/23 09:37:07;;;;;;;10.02;9.13;;;;;;;28.48;41.55;95054.81;5075012;28;20182;-66
2023/08/23 09:39:35;;;;;;;9.80;8.98;;;;;;;28.56;40.21;95055.31;5057444;28;20205;-65
2023/08/23 09:42:13;;;;;;;9.52;8.73;;;;;;;28.75;40.66;95044.75;5074811;28;20239;-65
2023/08/23 09:44:43;;;;;;;10.30;9.48;;;;;;;28.58;39.19;95038.63;5075282;28;20212;-65
2023/08/23 09:47:16;;;;;;;10.07;9.07;;;;;;;28.53;39.62;95042.84;5057685;28;20259;-65
2023/08/23 09:49:47;;;;;;;9.10;8.43;;;;;;;28.99;38.35;95033.59;5057253;28;20270;-65
2023/08/23 09:52:15;;;;;;;9.18;8.27;;;;;;;29.24;38.87;95024.72;5075270;28;20181;-66
2023/08/23 09:54:54;;;;;;;9.70;8.90;;;;;;;29.17;37.97;95030.72;5074993;28;20185;-65
2023/08/23 09:57:29;;;;;;;9.70;8.70;;;;;;;29.35;38.80;95021.38;5057424;28;20205;-65
2023/08/23 09:59:59;;;;;;;9.20;8.48;;;;;;;29.65;36.94;95024.47;5074881;28;20189;-66
2023/08/23 10:02:29;;;;;;;8.85;8.15;;;;;;;29.70;36.50;95023.78;5073977;28;20623;-66
2023/08/23 10:05:00;;;;;;;9.23;8.38;;;;;;;29.57;36.69;95026.03;5073802;28;20196;-66
2023/08/23 10:07:29;;;;;;;9.30;8.50;;;;;;;29.40;36.58;95014.25;5074830;28;20185;-66
2023/08/23 10:09:59;;;;;;;10.10;8.30;;;;;;;29.42;35.60;95006.84;5057636;28;20250;-65
2023/08/23 10:12:38;;;;;;;8.23;7.63;;;;;;;29.48;36.10;95012.63;5074497;28;20601;-65
2023/08/23 10:15:08;;;;;;;9.45;8.68;;;;;;;29.50;36.52;95010.91;5056900;28;20584;-65
2023/08/23 10:17:38;;;;;;;9.85;9.05;;;;;;;29.46;36.51;95013.13;5057174;28;20204;-65
2023/08/23 10:20:09;;;;;;;9.60;8.80;;;;;;;29.53;35.84;95016.91;5057920;28;20203;-65
2023/08/23 10:22:38;;;;;;;8.68;7.97;;;;;;;29.50;36.64;95010.91;5074738;28;20254;-65
2023/08/23 10:25:18;;;;;;;9.85;8.95;;;;;;;29.57;36.45;95011.84;5074777;28;20178;-65
2023/08/23 10:27:50;;;;;;;9.02;8.32;;;;;;;29.48;36.81;95006.97;5060191;28;20277;-65
2023/08/23 10:30:24;;;;;;;8.95;8.05;;;;;;;29.48;36.83;95004.13;5060985;28;20228;-65
2023/08/23 10:32:55;;;;;;;8.15;7.45;;;;;;;29.56;34.59;95008.22;5078667;28;20251;-66
2023/08/23 10:35:29;;;;;;;8.18;7.45;;;;;;;29.68;33.53;95010.06;5078419;28;20185;-65
2023/08/23 10:38:00;;;;;;;8.38;7.68;;;;;;;29.73;35.52;95009.41;5078269;28;20253;-65
2023/08/23 10:40:30;;;;;;;9.50;8.60;;;;;;;29.79;36.50;94997.41;5078198;28;20204;-65
2023/08/23 10:43:07;;;;;;;9.63;8.82;;;;;;;29.99;36.59;95000.44;5078300;28;20192;-65
2023/08/23 10:45:57;;;;;;;8.75;8.05;;;;;;;29.94;36.32;95001.13;5060618;28;20197;-66
2023/08/23 10:48:28;;;;;;;10.00;8.98;;;;;;;29.79;36.68;94997.41;5060697;28;20189;-65
2023/08/23 10:50:58;;;;;;;10.02;9.10;;;;;;;30.01;36.06;94995.06;5078093;28;20265;-66
2023/08/23 10:53:29;;;;;;;9.90;8.85;;;;;;;30.21;35.41;94985.97;5078022;28;20182;-65
2023/08/23 10:56:03;;;;;;;10.35;9.45;;;;;;;30.00;36.08;94987.81;5078031;28;20217;-65
2023/08/23 10:58:33;;;;;;;9.43;8.68;;;;;;;30.10;35.81;94985.69;5077851;28;20204;-65
2023/08/23 11:01:03;;;;;;;7.70;7.05;;;;;;;30.01;33.25;94986.53;5060199;28;20197;-65
2023/08/23 11:03:34;;;;;;;9.07;8.27;;;;;;;30.07;33.96;94993.16;5077889;28;20189;-66
2023/08/23 11:06:02;;;;;;;8.23;7.43;;;;;;;30.52;31.52;94988.44;5060461;28;20193;-65
2023/08/23 11:08:30;;;;;;;8.05;7.43;;;;;;;30.74;32.68;94987.31;5078016;28;20192;-65
2023/08/23 11:10:59;;;;;;;7.38;6.78;;;;;;;30.82;31.56;94974.28;5077350;28;20664;-65
2023/08/23 11:13:26;;;;;;;7.50;6.82;;;;;;;31.07;30.13;94968.03;5060072;28;20197;-65
2023/08/23 11:15:55;;;;;;;7.93;7.32;;;;;;;31.25;31.26;94961.34;5077895;28;20185;-65
2023/08/23 11:18:25;;;;;;;7.68;7.07;;;;;;;31.29;31.83;94964.78;5077629;28;20186;-65
2023/08/23 11:20:53;;;;;;;7.72;7.03;;;;;;;30.86;33.39;94955.75;5060142;28;20197;-66
2023/08/23 11:23:23;;;;;;;7.97;7.38;;;;;;;30.51;33.91;94952.72;5077232;28;20197;-65
2023/08/23 11:25:53;;;;;;;8.43;7.70;;;;;;;30.17;34.17;94956.91;5059660;28;20272;-66
2023/08/23 11:28:23;;;;;;;9.32;8.35;;;;;;;30.00;34.89;94972.81;5059827;28;20227;-65
2023/08/23 11:30:51;;;;;;;9.63;8.73;;;;;;;29.84;35.56;94965.47;5077330;28;20225;-65